Sharpsburg, Ohio
Current Conditions -  °F | °C
As of 3:15 PM on Monday 24 Nov 2014 (Local Time) from KUNI Reporting Station
Scattered Clouds Scattered Clouds  
Wind Chill: 61°   Ceiling: Unl
Heat Index: 61°   Visibility: 10mi
Dew Point: 43°   Wind: 25mph
Humidity: 52%   Direction: 250°WSW
Pressure: 29.6"   Gusts: 33mph
Location:  39.44°N, 81.91°W
Report Text: KUNI 242015Z AUTO 25022G29KT 10SM SCT060 16/06 A2960 RMK AO2 T01600060
Loading
Personal Weather Stations






























Interactive Weather Map New forecast layout! Learn more

10-Day Weather Forecast

Advertisements
Track Severe Weather on mobile